Federacion, Argentina
Current Conditions -  °F | °C
As of 10:00 PM on Saturday 22 Nov 2014 (Local Time) from SUSO Reporting Station
Clear Clear  
Wind Chill: 63°   Ceiling: Unl
Heat Index: 63°   Visibility: 6mi
Dew Point: 55°   Wind: 5mph
Humidity: 77%   Direction: 140°SE
Pressure: 29.91"   Gusts: NA
Location:  31°S, 57.9°W
Report Text: SUSO 230100Z 14004KT CAVOK 17/13 Q1013
Loading
Personal Weather Stations






























Interactive Weather Map New forecast layout! Learn more

10-Day Weather Forecast

Advertisements
Track Severe Weather on mobile